ADDS METAR Data

Data at: 1814 UTC 25 May 2017

METAR for:EGLF (Farnborough Arpt, --, UK)
Text:EGLF 251750Z 09010KT 9999 FEW046 23/14 Q1021
Temperature: 23.0°C ( 73°F)
Dewpoint: 14.0°C ( 57°F) [RH = 57%]
Pressure (altimeter):30.15 inches Hg (1021.0 mb)
Winds:from the E (90 degrees) at 12 MPH (10 knots; 5.1 m/s)
Visibility:6 or more sm (10+ km)
Ceiling:at least 12,000 feet AGL
Clouds: few clouds at 4600 feet AGL

TAF for:EGLF (Farnborough Arpt, --, UK) issued at 1656 UTC 25 May 2017
Text:TAF EGLF 251656Z 2518/2521 08008KT 9999 FEW045
Forecast period:1800 to 2100 UTC 25 May 2017
Forecast type:FROM: standard forecast or significant change
Winds:from the E (80 degrees) at 9 MPH (8 knots; 4.1 m/s)
Visibility:6 or more sm (10+ km)
Ceiling:at least 12,000 feet AGL
Clouds: few clouds at 4500 feet AGL

METAR for:EGUB (Benson(RAF), --, UK)
Text:EGUB 251750Z 09011KT CAVOK 24/13 Q1021 BLU NOSIG
Temperature: 24.0°C ( 75°F)
Dewpoint: 13.0°C ( 55°F) [RH = 50%]
Pressure (altimeter):30.15 inches Hg (1021.0 mb)
Winds:from the E (90 degrees) at 13 MPH (11 knots; 5.7 m/s)
Visibility:6 or more sm (10+ km)
Ceiling:ceiling and visibility are OK
Clouds:unknown

TAF for:EGUB (Benson(RAF), --, UK) issued at 1615 UTC 25 May 2017
Text:TAF EGUB 251615Z 2518/2523 09009KT CAVOK
Forecast period:1800 to 2300 UTC 25 May 2017
Forecast type:FROM: standard forecast or significant change
Winds:from the E (90 degrees) at 10 MPH (9 knots; 4.6 m/s)
Visibility:6 or more sm (10+ km)
Clouds:missing
Weather:NSW (no significant weather)

METAR for:EGVO (Odiham(RAF), --, UK)
Text:EGVO 251750Z 10010KT 9999 FEW046 24/13 Q1021 BLU NOSIG
Temperature: 24.0°C ( 75°F)
Dewpoint: 13.0°C ( 55°F) [RH = 50%]
Pressure (altimeter):30.15 inches Hg (1021.0 mb)
Winds:from the E (100 degrees) at 12 MPH (10 knots; 5.1 m/s)
Visibility:6 or more sm (10+ km)
Ceiling:at least 12,000 feet AGL
Clouds: few clouds at 4600 feet AGL

TAF for:EGVO (Odiham(RAF), --, UK) issued at 1724 UTC 25 May 2017
Text:TAF EGVO 251724Z 2518/2606 10006KT CAVOK
Forecast period:1800 UTC 25 May 2017 to 0600 UTC 26 May 2017
Forecast type:FROM: standard forecast or significant change
Winds:from the E (100 degrees) at 7 MPH (6 knots; 3.1 m/s)
Visibility:6 or more sm (10+ km)
Clouds:missing
Weather:NSW (no significant weather)

METAR for:EGTK (Oxford Arpt, --, UK)
Text:EGTK 251750Z 11008KT CAVOK 24/15 Q1021
Temperature: 24.0°C ( 75°F)
Dewpoint: 15.0°C ( 59°F) [RH = 57%]
Pressure (altimeter):30.15 inches Hg (1021.0 mb)
Winds:from the ESE (110 degrees) at 9 MPH (8 knots; 4.1 m/s)
Visibility:6 or more sm (10+ km)
Ceiling:ceiling and visibility are OK
Clouds:unknown

TAF for:EGTK (Oxford Arpt, --, UK) issued at 1701 UTC 25 May 2017
Text:TAF EGTK 251701Z 2518/2522 11008KT 9999 FEW045
Forecast period:1800 to 2200 UTC 25 May 2017
Forecast type:FROM: standard forecast or significant change
Winds:from the ESE (110 degrees) at 9 MPH (8 knots; 4.1 m/s)
Visibility:6 or more sm (10+ km)
Ceiling:at least 12,000 feet AGL
Clouds: few clouds at 4500 feet AGL

METAR for:EGHH (Bournemouth Intl, --, UK)
Text:EGHH 251750Z 12011KT CAVOK 23/13 Q1020
Temperature: 23.0°C ( 73°F)
Dewpoint: 13.0°C ( 55°F) [RH = 53%]
Pressure (altimeter):30.12 inches Hg (1020.0 mb)
Winds:from the ESE (120 degrees) at 13 MPH (11 knots; 5.7 m/s)
Visibility:6 or more sm (10+ km)
Ceiling:ceiling and visibility are OK
Clouds:unknown

TAF for:EGHH (Bournemouth Intl, --, UK) issued at 1701 UTC 25 May 2017
Text:TAF EGHH 251701Z 2518/2603 10008KT CAVOK
Forecast period:1800 UTC 25 May 2017 to 0300 UTC 26 May 2017
Forecast type:FROM: standard forecast or significant change
Winds:from the E (100 degrees) at 9 MPH (8 knots; 4.1 m/s)
Visibility:6 or more sm (10+ km)
Clouds:missing
Weather:NSW (no significant weather)

METAR for:
Text:No data found

TAF for:
Text:No data found